Aérodrome :
LOGIN :

S'inscrire | Disclaimer

   EN    FR    IT 

 










Légende :    VFR   VFR Marginal   IFR   IFR Intensif   IFR Très Intensif
Visi : 
Plafond : 
>= 8 km
>= 3000ft
5 à 8 km
1000 à 3000 ft
1500m à 5 km
500 à 1000 ft
800 à 1500m
200 à 500 ft
< 800m
< 200 ft
Symboles :   Orages  Brouillard  Fortes neiges  Fortes précipitations  Vent > 20 kt
SIGMETs :   Divers  Orages  Givrage  Turbulence  Onde Orograph.  Cendres Volcan.







- Altitude de l'aérodrome : 74 ft
- Code IATA : LRH
- Voir les cartes d'approche


LFBH - La Rochelle Ile de Ré

DERNIER METAR :
  • 180300Z AUTO 15009KT CAVOK 17/14 Q1012 TEMPO FEW040CB

METARs EXPIRÉS :
  • 180230Z AUTO 14007KT CAVOK 17/14 Q1012 TEMPO FEW040CB
  • 180200Z AUTO 13006KT CAVOK 17/14 Q1012 TEMPO FEW040CB
  • 180130Z AUTO 15007KT CAVOK 18/14 Q1012 TEMPO FEW040CB
  • 180100Z AUTO 15008KT CAVOK 18/14 Q1012 TEMPO FEW040CB
  • 180030Z AUTO 13007KT CAVOK 18/14 Q1013 TEMPO FEW040CB

TAF TAF LFBH
Valide du 18 à 00h jusqu'au 19 à 00h UTC


172300Z 1800/1824 16010KT CAVOK
TEMPO 1800/1804 -RA FEW040CB
PROB40
TEMPO 1806/1809 3000 RA BKN008
BECMG 1810/1812 BKN030
BECMG 1815/1817 24010KT
TEMPO 1819/1824 4000 SHRA BKN015
ATIS : +33 5 46 00 13 92
Pas de NOTAMs connus pour ce terrain.



MET'MAP, la Météo Aéronautique d'un coup d'oeil ! - Copyright ORBIFLY Décembre 2007 - Disclaimer

ORBIFLY MET'MAP TEAM :

Programmation & Développement : Alexandra Zaïnal
Conception & Développement : Baudouin d'Aumeries
Co-Programmation & Développement : Marc-Olivier Méhu
Soutien technique & logistique : Manuel Goepfert

Contact : metmap@orbifly.com




SOURCES & CREDITS :

   NOAA